createdAt,value
2022-09-07T00:00:06.083Z,7.75
2022-09-07T00:02:32.941Z,8.10
2022-09-07T00:04:59.861Z,8.88
2022-09-07T00:07:26.813Z,7.47
2022-09-07T00:09:53.892Z,7.63
2022-09-07T00:12:20.723Z,7.25
2022-09-07T00:14:47.765Z,7.18
2022-09-07T00:17:14.594Z,7.60
2022-09-07T00:19:42.717Z,8.10
2022-09-07T00:22:09.587Z,7.90
2022-09-07T00:24:36.706Z,8.48
2022-09-07T00:27:03.569Z,8.40
2022-09-07T00:29:30.331Z,7.75
2022-09-07T00:31:57.348Z,8.70
2022-09-07T00:34:24.411Z,7.82
2022-09-07T00:36:51.375Z,7.50
2022-09-07T00:39:18.187Z,7.35
2022-09-07T00:41:45.431Z,7.90
2022-09-07T00:44:43.267Z,7.03
2022-09-07T00:47:21.342Z,6.80
2022-09-07T00:49:55.022Z,7.45
2022-09-07T00:52:23.567Z,7.63
2022-09-07T00:54:59.879Z,6.88
2022-09-07T00:57:28.239Z,7.45
2022-09-07T00:59:57.577Z,7.43
2022-09-07T01:02:26.480Z,7.55
2022-09-07T01:05:04.503Z,6.68
2022-09-07T01:07:34.311Z,7.65
2022-09-07T01:10:02.054Z,6.95
2022-09-07T01:12:29.013Z,7.10
2022-09-07T01:14:56.005Z,5.72
2022-09-07T01:17:45.803Z,6.10
2022-09-07T01:20:27.364Z,5.70
2022-09-07T01:23:32.254Z,6.00
2022-09-07T01:26:27.012Z,6.43
2022-09-07T01:29:11.371Z,6.55
2022-09-07T01:32:13.995Z,6.68
2022-09-07T01:34:43.802Z,7.28
2022-09-07T01:37:32.335Z,7.63
2022-09-07T01:40:14.465Z,6.50
2022-09-07T01:43:01.090Z,7.38
2022-09-07T01:45:32.231Z,7.47
2022-09-07T01:48:04.692Z,7.85
2022-09-07T01:50:38.806Z,7.25
2022-09-07T01:53:26.678Z,7.45
2022-09-07T01:55:59.653Z,8.35
2022-09-07T01:58:31.855Z,7.60
2022-09-07T02:01:08.359Z,7.68
2022-09-07T02:04:10.746Z,6.95
2022-09-07T02:06:43.036Z,7.85
2022-09-07T02:09:28.178Z,7.78
2022-09-07T02:11:55.181Z,8.68
2022-09-07T02:14:29.292Z,9.05
2022-09-07T02:17:06.412Z,8.52
2022-09-07T02:19:42.602Z,9.57
2022-09-07T02:22:16.187Z,9.15
2022-09-07T02:24:52.615Z,9.43
2022-09-07T02:27:28.141Z,8.95
2022-09-07T02:29:55.133Z,9.77
2022-09-07T02:32:21.909Z,9.85
2022-09-07T02:34:49.623Z,9.75
2022-09-07T02:37:18.147Z,9.15
2022-09-07T02:39:45.773Z,9.52
2022-09-07T02:42:12.693Z,9.18
2022-09-07T02:44:41.106Z,9.27
2022-09-07T02:47:46.088Z,8.98
2022-09-07T02:50:29.305Z,9.35
2022-09-07T02:53:10.905Z,9.02
2022-09-07T02:55:43.842Z,8.20
2022-09-07T02:58:35.093Z,9.60
2022-09-07T03:01:32.209Z,9.27
2022-09-07T03:04:34.382Z,9.05
2022-09-07T03:07:11.037Z,9.43
2022-09-07T03:09:42.334Z,8.55
2022-09-07T03:12:10.353Z,10.10
2022-09-07T03:14:40.029Z,10.55
2022-09-07T03:17:08.073Z,10.10
2022-09-07T03:19:34.821Z,10.68
2022-09-07T03:22:02.271Z,9.82
2022-09-07T03:24:29.520Z,10.75
2022-09-07T03:26:56.903Z,10.75
2022-09-07T03:29:23.839Z,10.40
2022-09-07T03:31:50.962Z,9.93
2022-09-07T03:34:17.676Z,10.30
2022-09-07T03:36:44.769Z,10.52
2022-09-07T03:39:13.400Z,9.48
2022-09-07T03:41:40.494Z,9.63
2022-09-07T03:44:08.239Z,10.85
2022-09-07T03:46:35.915Z,12.15
2022-09-07T03:49:03.228Z,10.35
2022-09-07T03:51:31.251Z,11.02
2022-09-07T03:53:59.853Z,10.57
2022-09-07T03:56:27.499Z,11.07
2022-09-07T03:58:55.692Z,10.52
2022-09-07T04:01:24.771Z,12.05
2022-09-07T04:03:52.334Z,11.63
2022-09-07T04:06:20.438Z,10.85
2022-09-07T04:08:47.407Z,11.07
2022-09-07T04:11:17.117Z,12.07
2022-09-07T04:13:47.597Z,11.00
2022-09-07T04:16:26.101Z,10.82
2022-09-07T04:18:56.500Z,13.05
2022-09-07T04:21:24.480Z,11.10
2022-09-07T04:23:52.352Z,10.88
2022-09-07T04:26:29.672Z,11.85
2022-09-07T04:28:57.133Z,12.45
2022-09-07T04:31:24.337Z,11.63
2022-09-07T04:33:52.017Z,11.13
2022-09-07T04:36:20.457Z,12.15
2022-09-07T04:38:48.492Z,12.48
2022-09-07T04:41:17.655Z,11.98
2022-09-07T04:43:46.273Z,12.32
2022-09-07T04:46:22.789Z,14.98
2022-09-07T04:48:51.523Z,15.70
2022-09-07T04:51:19.482Z,15.88
2022-09-07T04:53:51.747Z,16.80
2022-09-07T04:56:19.710Z,17.77
2022-09-07T04:58:47.819Z,18.48
2022-09-07T05:01:20.566Z,20.50
2022-09-07T05:03:48.020Z,19.33
2022-09-07T05:06:16.943Z,20.95
2022-09-07T05:08:46.743Z,21.73
2022-09-07T05:11:15.287Z,20.67
2022-09-07T05:13:42.333Z,18.42
2022-09-07T05:16:10.289Z,19.30
2022-09-07T05:18:37.885Z,21.50
2022-09-07T05:21:16.453Z,20.73
2022-09-07T05:23:44.416Z,19.60
2022-09-07T05:26:12.480Z,19.73
2022-09-07T05:28:39.707Z,20.23
2022-09-07T05:31:19.627Z,19.00
2022-09-07T05:36:35.711Z,18.90
2022-09-07T05:39:03.241Z,16.98
2022-09-07T05:41:30.138Z,18.30
2022-09-07T05:46:44.039Z,17.08
2022-09-07T05:49:10.984Z,18.25
2022-09-07T05:51:38.355Z,17.63
2022-09-07T05:54:05.310Z,16.92
2022-09-07T05:56:35.161Z,15.93
2022-09-07T05:59:02.131Z,19.77
2022-09-07T06:01:29.015Z,18.45
2022-09-07T06:03:55.866Z,19.25
2022-09-07T06:06:22.846Z,17.75
2022-09-07T06:08:52.686Z,19.83
2022-09-07T06:11:22.227Z,19.55
2022-09-07T06:13:49.289Z,19.67
2022-09-07T06:16:17.651Z,19.90
2022-09-07T06:18:46.542Z,20.23
2022-09-07T06:21:18.927Z,19.30
2022-09-07T06:23:46.856Z,17.98
2022-09-07T06:26:15.093Z,18.15
2022-09-07T06:28:49.472Z,19.85
2022-09-07T06:31:20.471Z,20.63
2022-09-07T06:33:48.364Z,18.17
2022-09-07T06:36:23.253Z,18.35
2022-09-07T06:38:51.103Z,22.25
2022-09-07T06:44:07.484Z,16.83
2022-09-07T06:49:23.514Z,17.27
2022-09-07T06:51:50.936Z,16.30
2022-09-07T06:57:09.269Z,14.75
2022-09-07T06:59:37.277Z,15.30
2022-09-07T07:02:05.334Z,15.13
2022-09-07T07:04:34.168Z,15.48
2022-09-07T07:07:04.817Z,15.77
2022-09-07T07:09:31.553Z,15.82
2022-09-07T07:11:58.650Z,17.02
2022-09-07T07:14:25.335Z,18.70
2022-09-07T07:16:52.292Z,20.30
2022-09-07T07:19:19.045Z,17.85
2022-09-07T07:22:13.998Z,19.67
2022-09-07T07:24:33.027Z,19.65
2022-09-07T07:26:59.980Z,18.58
2022-09-07T07:29:28.247Z,18.38
2022-09-07T07:31:55.302Z,17.27
2022-09-07T07:34:22.653Z,17.67
2022-09-07T07:36:49.618Z,16.67
2022-09-07T07:42:05.918Z,16.60
2022-09-07T07:44:33.206Z,15.32
2022-09-07T07:47:00.181Z,16.70
2022-09-07T07:49:27.613Z,16.38
2022-09-07T07:54:43.149Z,17.08
2022-09-07T07:57:10.412Z,16.08
2022-09-07T07:59:38.156Z,14.10
2022-09-07T08:02:13.710Z,13.75
2022-09-07T08:04:40.892Z,15.88
2022-09-07T08:07:11.028Z,16.15
2022-09-07T08:09:42.874Z,15.27
2022-09-07T08:12:12.197Z,16.30
2022-09-07T08:14:43.097Z,14.30
2022-09-07T08:17:11.680Z,15.00
2022-09-07T08:19:39.018Z,13.80
2022-09-07T08:22:06.730Z,14.77
2022-09-07T08:24:33.818Z,12.77
2022-09-07T08:27:00.702Z,12.13
2022-09-07T08:29:31.245Z,13.10
2022-09-07T08:32:01.901Z,11.45
2022-09-07T08:34:28.798Z,11.77
2022-09-07T08:36:55.418Z,11.20
2022-09-07T08:39:22.406Z,11.20
2022-09-07T08:42:03.843Z,8.77
2022-09-07T08:44:37.583Z,7.82
2022-09-07T08:47:12.606Z,8.50
2022-09-07T08:50:11.349Z,8.40
2022-09-07T08:52:50.468Z,5.65
2022-09-07T08:55:31.867Z,6.68
2022-09-07T08:58:27.121Z,5.97
2022-09-07T09:06:52.613Z,4.97
2022-09-07T09:09:46.186Z,5.95
2022-09-07T09:12:15.998Z,6.07
2022-09-07T09:14:56.757Z,6.22
2022-09-07T09:17:38.357Z,6.57
2022-09-07T09:22:41.197Z,7.40
2022-09-07T09:25:22.102Z,6.60
2022-09-07T09:27:49.571Z,5.82
2022-09-07T09:30:24.334Z,6.15
2022-09-07T09:33:11.436Z,6.53
2022-09-07T09:35:39.525Z,5.60
2022-09-07T09:38:29.346Z,6.07
2022-09-07T09:40:58.342Z,5.53
2022-09-07T09:43:28.760Z,6.30
2022-09-07T09:46:13.329Z,5.90
2022-09-07T09:48:41.697Z,5.20
2022-09-07T09:54:02.432Z,5.28
2022-09-07T09:56:44.400Z,5.50
2022-09-07T10:05:29.735Z,5.20
2022-09-07T10:07:57.133Z,5.10
2022-09-07T10:10:26.216Z,4.80
2022-09-07T10:12:54.702Z,4.63
2022-09-07T10:15:40.926Z,4.38
2022-09-07T10:18:18.887Z,4.55
2022-09-07T10:20:45.723Z,4.78
2022-09-07T10:23:24.155Z,4.90
2022-09-07T10:25:51.343Z,4.43
2022-09-07T10:29:06.567Z,4.55
2022-09-07T10:31:31.920Z,4.55
2022-09-07T10:37:08.950Z,4.47
2022-09-07T10:39:43.810Z,4.50
2022-09-07T10:42:17.060Z,5.35
2022-09-07T10:44:52.284Z,4.50
2022-09-07T10:47:44.483Z,4.40
2022-09-07T10:50:33.336Z,4.68
2022-09-07T10:53:43.147Z,4.60
2022-09-07T10:56:10.481Z,4.85
2022-09-07T10:59:04.787Z,4.60
2022-09-07T11:01:46.830Z,4.80
2022-09-07T11:04:49.874Z,4.82
2022-09-07T11:07:44.641Z,4.32
2022-09-07T11:10:12.193Z,4.32
2022-09-07T11:12:42.027Z,4.00
2022-09-07T11:15:24.205Z,4.63
2022-09-07T11:18:28.814Z,4.10
2022-09-07T11:21:01.357Z,4.20
2022-09-07T11:23:44.327Z,4.10
2022-09-07T11:26:23.844Z,4.10
2022-09-07T11:31:48.203Z,4.40
2022-09-07T11:34:25.537Z,3.90
2022-09-07T11:37:20.043Z,3.92
2022-09-07T11:39:55.467Z,3.88
2022-09-07T11:42:48.029Z,3.90
2022-09-07T11:45:31.144Z,4.10
2022-09-07T11:48:11.438Z,3.97
2022-09-07T11:50:47.255Z,4.32
2022-09-07T11:53:47.034Z,3.70
2022-09-07T11:56:18.958Z,4.35
2022-09-07T11:59:05.470Z,4.10
2022-09-07T12:01:40.200Z,3.97
2022-09-07T12:04:19.062Z,4.15
2022-09-07T12:07:00.803Z,3.92
2022-09-07T12:09:52.248Z,3.92
2022-09-07T12:12:49.934Z,3.60
2022-09-07T12:15:44.537Z,4.43
2022-09-07T12:18:32.367Z,4.10
2022-09-07T12:20:59.465Z,4.00
2022-09-07T12:23:32.096Z,4.35
2022-09-07T12:26:34.388Z,4.30
2022-09-07T12:29:02.535Z,4.25
2022-09-07T12:32:52.402Z,4.30
2022-09-07T12:34:51.653Z,4.03
2022-09-07T12:37:27.921Z,4.10
2022-09-07T12:40:28.923Z,4.00
2022-09-07T12:43:13.976Z,3.90
2022-09-07T12:45:40.917Z,3.55
2022-09-07T12:48:17.627Z,3.83
2022-09-07T12:50:56.349Z,3.65
2022-09-07T12:53:33.662Z,4.50
2022-09-07T12:56:17.063Z,4.32
2022-09-07T12:59:16.057Z,4.50
2022-09-07T13:02:03.696Z,4.43
2022-09-07T13:05:06.358Z,4.25
2022-09-07T13:08:04.085Z,4.68
2022-09-07T13:10:37.803Z,4.63
2022-09-07T13:16:11.744Z,4.47
2022-09-07T13:18:43.777Z,4.80
2022-09-07T13:21:12.023Z,4.53
2022-09-07T13:23:40.063Z,4.50
2022-09-07T13:26:10.833Z,4.32
2022-09-07T13:28:56.101Z,3.97
2022-09-07T13:32:08.017Z,4.60
2022-09-07T13:34:34.973Z,5.05
2022-09-07T13:37:05.608Z,5.40
2022-09-07T13:39:40.878Z,5.18
2022-09-07T13:42:16.516Z,5.20
2022-09-07T13:45:01.609Z,5.40
2022-09-07T13:47:49.973Z,6.18
2022-09-07T13:50:55.565Z,5.70
2022-09-07T13:53:28.259Z,5.88
2022-09-07T13:56:14.652Z,5.78
2022-09-07T13:58:44.271Z,5.97
2022-09-07T14:01:13.683Z,5.95
2022-09-07T14:03:49.686Z,6.07
2022-09-07T14:06:28.219Z,6.30
2022-09-07T14:09:01.636Z,5.97
2022-09-07T14:11:42.629Z,6.40
2022-09-07T14:14:18.976Z,6.60
2022-09-07T14:17:02.927Z,5.95
2022-09-07T14:19:39.894Z,6.40
2022-09-07T14:22:25.101Z,6.32
2022-09-07T14:24:55.658Z,5.88
2022-09-07T14:27:42.969Z,5.43
2022-09-07T14:30:19.492Z,2.80
2022-09-07T14:32:48.920Z,2.42
2022-09-07T14:35:18.820Z,2.10
2022-09-07T14:37:48.046Z,1.60
2022-09-07T14:40:22.022Z,1.60
2022-09-07T14:42:50.271Z,1.60
2022-09-07T14:45:23.271Z,1.70
2022-09-07T14:47:52.867Z,1.45
2022-09-07T14:50:39.196Z,1.38
2022-09-07T14:56:09.222Z,1.20
2022-09-07T14:58:36.297Z,1.30
2022-09-07T15:04:02.716Z,1.10
2022-09-07T15:07:02.170Z,1.13
2022-09-07T15:09:36.519Z,1.20
2022-09-07T15:12:36.391Z,1.13
2022-09-07T15:15:26.310Z,1.30
2022-09-07T15:17:55.679Z,1.10
2022-09-07T15:20:44.147Z,1.52
2022-09-07T15:23:19.508Z,1.60
2022-09-07T15:25:53.602Z,1.30
2022-09-07T15:34:17.068Z,1.73
2022-09-07T15:36:51.228Z,1.40
2022-09-07T15:39:27.693Z,1.85
2022-09-07T15:41:54.865Z,1.65
2022-09-07T15:44:26.171Z,2.00
2022-09-07T15:49:49.235Z,1.88
2022-09-07T15:52:18.187Z,2.17
2022-09-07T15:54:45.186Z,2.30
2022-09-07T15:59:59.118Z,2.10
2022-09-07T16:05:12.993Z,2.03
2022-09-07T16:10:31.011Z,2.13
2022-09-07T16:13:02.844Z,2.25
2022-09-07T16:15:45.108Z,2.15
2022-09-07T16:18:16.414Z,1.95
2022-09-07T16:20:44.598Z,2.15
2022-09-07T16:23:14.340Z,2.25
2022-09-07T16:25:42.341Z,1.90
2022-09-07T16:28:10.172Z,2.17
2022-09-07T16:30:40.719Z,2.25
2022-09-07T16:33:09.159Z,2.03
2022-09-07T16:35:36.135Z,2.20
2022-09-07T16:40:51.047Z,2.13
2022-09-07T16:43:18.166Z,1.75
2022-09-07T16:48:33.826Z,2.28
2022-09-07T16:51:02.724Z,2.42
2022-09-07T16:53:31.726Z,2.67
2022-09-07T16:56:16.949Z,2.47
2022-09-07T16:58:54.839Z,2.85
2022-09-07T17:01:34.514Z,2.80
2022-09-07T17:04:05.548Z,2.97
2022-09-07T17:06:36.795Z,2.92
2022-09-07T17:09:03.771Z,3.40
2022-09-07T17:11:33.459Z,3.55
2022-09-07T17:14:00.373Z,3.03
2022-09-07T17:16:32.714Z,3.20
2022-09-07T17:21:54.055Z,3.03
2022-09-07T17:24:21.414Z,2.50
2022-09-07T17:26:48.254Z,2.88
2022-09-07T17:29:15.433Z,2.25
2022-09-07T17:34:30.352Z,2.78
2022-09-07T17:36:57.729Z,2.65
2022-09-07T17:39:24.934Z,2.10
2022-09-07T17:41:53.191Z,2.80
2022-09-07T17:44:21.920Z,2.28
2022-09-07T17:46:48.864Z,2.70
2022-09-07T17:49:17.022Z,2.42
2022-09-07T17:51:45.288Z,2.90
2022-09-07T17:54:16.024Z,2.65
2022-09-07T17:56:44.729Z,2.40
2022-09-07T18:01:59.084Z,2.17
2022-09-07T18:04:26.377Z,1.90
2022-09-07T18:06:54.562Z,2.20
2022-09-07T18:09:22.051Z,2.13
2022-09-07T18:11:50.089Z,1.90
2022-09-07T18:14:18.902Z,2.25
2022-09-07T18:16:49.404Z,2.30
2022-09-07T18:19:18.187Z,1.90
2022-09-07T18:21:47.927Z,2.38
2022-09-07T18:24:19.434Z,2.50
2022-09-07T18:26:52.203Z,2.80
2022-09-07T18:29:30.183Z,2.33
2022-09-07T18:31:58.947Z,2.38
2022-09-07T18:34:26.492Z,2.47
2022-09-07T18:36:53.840Z,2.67
2022-09-07T18:39:22.018Z,2.70
2022-09-07T18:41:48.923Z,2.70
2022-09-07T18:47:02.776Z,2.70
2022-09-07T18:49:29.505Z,2.85
2022-09-07T18:54:43.698Z,3.03
2022-09-07T18:57:10.356Z,3.40
2022-09-07T18:59:37.339Z,2.50
2022-09-07T19:02:06.268Z,3.00
2022-09-07T19:07:23.993Z,2.55
2022-09-07T19:09:54.282Z,3.13
2022-09-07T19:12:21.278Z,3.00
2022-09-07T19:14:47.932Z,2.80
2022-09-07T19:17:14.951Z,2.95
2022-09-07T19:19:42.143Z,2.97
2022-09-07T19:22:09.125Z,3.10
2022-09-07T19:24:35.831Z,3.25
2022-09-07T19:27:02.773Z,3.13
2022-09-07T19:29:29.824Z,3.63
2022-09-07T19:32:06.969Z,3.50
2022-09-07T19:34:35.867Z,3.17
2022-09-07T19:37:04.009Z,3.53
2022-09-07T19:39:30.873Z,3.20
2022-09-07T19:41:57.767Z,3.10
2022-09-07T19:44:24.504Z,3.35
2022-09-07T19:46:51.403Z,3.60
2022-09-07T19:49:18.244Z,3.67
2022-09-07T19:51:45.647Z,3.55
2022-09-07T19:54:14.646Z,3.20
2022-09-07T19:56:42.902Z,3.60
2022-09-07T19:59:10.070Z,3.35
2022-09-07T20:01:38.727Z,3.60
2022-09-07T20:04:12.256Z,3.60
2022-09-07T20:06:41.742Z,3.50
2022-09-07T20:09:09.027Z,3.90
2022-09-07T20:11:40.855Z,3.90
2022-09-07T20:14:10.886Z,3.90
2022-09-07T20:16:39.426Z,4.25
2022-09-07T20:19:07.761Z,3.50
2022-09-07T20:21:36.945Z,3.92
2022-09-07T20:24:04.425Z,3.72
2022-09-07T20:26:32.392Z,4.25
2022-09-07T20:29:23.449Z,3.47
2022-09-07T20:31:47.235Z,3.50
2022-09-07T20:34:14.785Z,3.28
2022-09-07T20:36:42.106Z,3.40
2022-09-07T20:39:15.814Z,3.67
2022-09-07T20:41:42.810Z,3.88
2022-09-07T20:44:10.055Z,3.60
2022-09-07T20:46:36.926Z,3.80
2022-09-07T20:49:04.813Z,3.70
2022-09-07T20:51:32.194Z,4.10
2022-09-07T20:53:59.147Z,3.97
2022-09-07T20:56:29.480Z,4.22
2022-09-07T20:59:01.783Z,4.00
2022-09-07T21:01:30.610Z,4.57
2022-09-07T21:03:59.199Z,4.70
2022-09-07T21:06:27.511Z,4.90
2022-09-07T21:08:56.161Z,4.43
2022-09-07T21:11:29.018Z,5.40
2022-09-07T21:14:03.666Z,4.55
2022-09-07T21:16:31.076Z,4.30
2022-09-07T21:19:00.138Z,4.70
2022-09-07T21:21:28.881Z,5.50
2022-09-07T21:24:00.863Z,4.40
2022-09-07T21:26:28.981Z,4.53
2022-09-07T21:29:01.280Z,4.60
2022-09-07T21:31:30.146Z,4.53
2022-09-07T21:33:59.576Z,3.97
2022-09-07T21:36:27.635Z,4.35
2022-09-07T21:38:54.691Z,4.28
2022-09-07T21:41:23.897Z,4.70
2022-09-07T21:44:01.812Z,3.80
2022-09-07T21:46:31.815Z,3.40
2022-09-07T21:48:59.754Z,3.33
2022-09-07T21:51:27.465Z,3.17
2022-09-07T21:53:56.030Z,3.65
2022-09-07T21:56:23.059Z,3.80
2022-09-07T21:58:57.459Z,3.35
2022-09-07T22:01:26.263Z,3.08
2022-09-07T22:04:01.776Z,3.38
2022-09-07T22:06:29.750Z,3.40
2022-09-07T22:08:56.646Z,3.38
2022-09-07T22:11:25.916Z,3.50
2022-09-07T22:14:01.980Z,2.88
2022-09-07T22:16:29.723Z,3.30
2022-09-07T22:18:56.743Z,4.22
2022-09-07T22:21:25.943Z,3.45
2022-09-07T22:23:56.052Z,3.85
2022-09-07T22:26:25.398Z,3.25
2022-09-07T22:28:52.971Z,3.30
2022-09-07T22:31:25.053Z,3.40
2022-09-07T22:36:20.970Z,3.75
2022-09-07T22:38:49.896Z,3.58
2022-09-07T22:41:19.699Z,3.40
2022-09-07T22:43:47.613Z,3.28
2022-09-07T22:46:14.945Z,3.30
2022-09-07T22:48:42.132Z,3.80
2022-09-07T22:51:09.027Z,3.45
2022-09-07T22:53:37.925Z,3.30
2022-09-07T22:56:10.867Z,3.28
2022-09-07T22:58:38.612Z,4.32
2022-09-07T23:01:06.478Z,3.80
2022-09-07T23:03:34.930Z,3.22
2022-09-07T23:06:02.835Z,4.10
2022-09-07T23:08:30.004Z,3.85
2022-09-07T23:11:02.912Z,4.25
2022-09-07T23:13:30.031Z,3.80
2022-09-07T23:15:57.114Z,3.88
2022-09-07T23:18:24.261Z,3.70
2022-09-07T23:20:50.942Z,4.00
2022-09-07T23:23:18.159Z,3.65
2022-09-07T23:25:44.892Z,3.50
2022-09-07T23:28:12.452Z,3.20
2022-09-07T23:30:42.624Z,3.58
2022-09-07T23:33:09.314Z,3.15
2022-09-07T23:35:36.328Z,3.03
2022-09-07T23:38:03.530Z,3.20
2022-09-07T23:40:31.782Z,3.63
2022-09-07T23:42:58.815Z,3.90
2022-09-07T23:45:25.611Z,3.58
2022-09-07T23:47:53.181Z,4.03
2022-09-07T23:50:20.050Z,3.75
2022-09-07T23:52:47.253Z,3.75
2022-09-07T23:55:13.914Z,4.00
2022-09-07T23:57:40.713Z,4.03
